Time;durP1;ratioP1;P1;durP2;ratioP2;P2;SDS_P1;SDS_P2;PMS_P1;PMS_P2;Temp;Humidity;BMP_temperature;BMP_pressure;BME280_temperature;BME280_humidity;BME280_pressure;Samples;Min_cycle;Max_cycle;Signal;HPM_P1;HPM_P2
2023/06/01 00:01:25;;;;;;;;;11.67;10.00;;;;;;;;6404348;22;45175;-70
2023/06/01 00:03:50;;;;;;;;;10.00;9.67;;;;;;;;6404310;22;45214;-70
2023/06/01 00:06:16;;;;;;;;;10.00;10.00;;;;;;;;6403648;22;45891;-71
2023/06/01 00:08:41;;;;;;;;;11.33;8.00;;;;;;;;6403577;22;45338;-70
2023/06/01 00:11:06;;;;;;;;;13.33;12.00;;;;;;;;6375408;22;45363;-71
2023/06/01 00:13:31;;;;;;;;;9.00;8.33;;;;;;;;6404221;22;45273;-70
2023/06/01 00:15:56;;;;;;;;;9.67;9.67;;;;;;;;6403808;22;46552;-70
2023/06/01 00:18:22;;;;;;;;;14.33;9.00;;;;;;;;6404523;22;45286;-70
2023/06/01 00:20:47;;;;;;;;;16.00;12.00;;;;;;;;6403641;22;45195;-70
2023/06/01 00:23:12;;;;;;;;;11.33;11.00;;;;;;;;6404341;22;45241;-71
2023/06/01 00:25:37;;;;;;;;;11.67;10.67;;;;;;;;6374250;22;47072;-70
2023/06/01 00:28:02;;;;;;;;;10.67;10.67;;;;;;;;6403887;22;45288;-70
2023/06/01 00:30:28;;;;;;;;;13.67;12.33;;;;;;;;6404056;22;45231;-70
2023/06/01 00:32:53;;;;;;;;;11.33;10.33;;;;;;;;6375309;22;47397;-70
2023/06/01 00:35:18;;;;;;;;;13.00;11.33;;;;;;;;6403955;22;45615;-70
2023/06/01 00:37:43;;;;;;;;;15.33;12.00;;;;;;;;6374808;22;45419;-70
2023/06/01 00:40:09;;;;;;;;;11.33;11.00;;;;;;;;6404179;22;45226;-70
2023/06/01 00:42:34;;;;;;;;;13.00;13.00;;;;;;;;6375216;22;46129;-70
2023/06/01 00:45:00;;;;;;;;;14.00;13.33;;;;;;;;6403004;22;45268;-70
2023/06/01 00:47:25;;;;;;;;;17.00;13.33;;;;;;;;6403703;22;45258;-71
2023/06/01 00:49:50;;;;;;;;;14.33;12.33;;;;;;;;6404342;22;45207;-70
2023/06/01 00:52:15;;;;;;;;;16.33;13.00;;;;;;;;6403920;22;45258;-70
2023/06/01 00:54:41;;;;;;;;;14.67;11.33;;;;;;;;6404280;22;46494;-70
2023/06/01 00:57:06;;;;;;;;;14.00;10.00;;;;;;;;6404045;22;45179;-71
2023/06/01 00:59:33;;;;;;;;;14.00;13.00;;;;;;;;6404231;22;45103;-70
2023/06/01 01:01:58;;;;;;;;;13.00;10.67;;;;;;;;6403221;22;45234;-70
2023/06/01 01:04:27;;;;;;;;;11.33;11.33;;;;;;;;6404025;22;46069;-70
2023/06/01 01:07:20;;;;;;;;;13.67;13.67;;;;;;;;6403497;22;45232;-71
2023/06/01 01:10:05;;;;;;;;;12.67;11.67;;;;;;;;6398149;22;45283;-70
2023/06/01 01:12:32;;;;;;;;;14.00;13.33;;;;;;;;6401885;22;45283;-70
2023/06/01 01:15:08;;;;;;;;;16.00;14.00;;;;;;;;6373319;22;47816;-71
2023/06/01 01:17:38;;;;;;;;;16.00;14.00;;;;;;;;6374705;22;45240;-71
2023/06/01 01:20:08;;;;;;;;;19.33;15.67;;;;;;;;6373856;22;45323;-70
2023/06/01 01:22:40;;;;;;;;;19.67;15.33;;;;;;;;6403238;22;45474;-70
2023/06/01 01:25:11;;;;;;;;;19.33;17.67;;;;;;;;6403364;22;46195;-71
2023/06/01 01:27:44;;;;;;;;;22.33;18.00;;;;;;;;6403562;22;45293;-70
2023/06/01 01:30:10;;;;;;;;;17.00;15.00;;;;;;;;6374213;22;45528;-70
2023/06/01 01:32:37;;;;;;;;;16.67;12.67;;;;;;;;6403623;22;45199;-70
2023/06/01 01:35:04;;;;;;;;;21.33;19.33;;;;;;;;6403170;22;46343;-71
2023/06/01 01:37:29;;;;;;;;;13.00;12.33;;;;;;;;6403445;22;45225;-71
2023/06/01 01:39:55;;;;;;;;;16.00;13.00;;;;;;;;6374326;22;45374;-71
2023/06/01 01:42:20;;;;;;;;;19.67;17.33;;;;;;;;6374562;22;45867;-71
2023/06/01 01:44:46;;;;;;;;;20.33;16.33;;;;;;;;6403353;22;45288;-71
2023/06/01 01:47:16;;;;;;;;;18.67;17.33;;;;;;;;6374412;22;45273;-70
2023/06/01 01:49:46;;;;;;;;;17.67;16.67;;;;;;;;6404027;22;45253;-70
2023/06/01 01:52:31;;;;;;;;;18.33;15.33;;;;;;;;6402728;22;45431;-71
2023/06/01 01:54:58;;;;;;;;;19.00;16.00;;;;;;;;6374524;22;47324;-70
2023/06/01 01:57:24;;;;;;;;;22.33;19.00;;;;;;;;6403063;22;45292;-71
2023/06/01 01:59:49;;;;;;;;;17.33;15.00;;;;;;;;6403408;22;45286;-71
2023/06/01 02:02:15;;;;;;;;;21.00;18.33;;;;;;;;6373651;22;45709;-71
2023/06/01 02:04:41;;;;;;;;;18.33;16.33;;;;;;;;6374642;22;45761;-71
2023/06/01 02:07:06;;;;;;;;;17.00;15.67;;;;;;;;6403110;22;45250;-70
2023/06/01 02:09:32;;;;;;;;;20.33;19.00;;;;;;;;6374722;22;45242;-70
2023/06/01 02:11:57;;;;;;;;;16.00;15.33;;;;;;;;6373939;22;45920;-70
2023/06/01 02:14:22;;;;;;;;;18.00;18.00;;;;;;;;6403034;22;46494;-70
2023/06/01 02:16:47;;;;;;;;;18.33;16.00;;;;;;;;6403480;22;45273;-70
2023/06/01 02:19:15;;;;;;;;;25.00;22.67;;;;;;;;6403661;22;45444;-70
2023/06/01 02:21:40;;;;;;;;;17.00;17.00;;;;;;;;6402421;22;45310;-70
2023/06/01 02:24:07;;;;;;;;;20.67;19.00;;;;;;;;6402996;22;45327;-70
2023/06/01 02:26:32;;;;;;;;;20.67;20.00;;;;;;;;6374121;22;45267;-70
2023/06/01 02:28:57;;;;;;;;;23.00;19.67;;;;;;;;6402976;22;45415;-70
2023/06/01 02:31:22;;;;;;;;;20.33;16.67;;;;;;;;6403547;22;45333;-70
2023/06/01 02:33:48;;;;;;;;;20.00;20.00;;;;;;;;6404757;22;46380;-71
2023/06/01 02:36:16;;;;;;;;;26.33;25.00;;;;;;;;6404403;22;45309;-70
2023/06/01 02:38:41;;;;;;;;;26.00;21.33;;;;;;;;6404852;22;45263;-70
2023/06/01 02:41:06;;;;;;;;;24.67;23.33;;;;;;;;6404399;22;45158;-70
2023/06/01 02:43:33;;;;;;;;;28.00;24.00;;;;;;;;6374933;22;47422;-70
2023/06/01 02:45:58;;;;;;;;;31.67;22.33;;;;;;;;6404352;22;45516;-71
2023/06/01 02:48:24;;;;;;;;;25.00;21.67;;;;;;;;6404794;22;45482;-70
2023/06/01 02:50:49;;;;;;;;;26.00;22.33;;;;;;;;6404689;22;45428;-71
2023/06/01 02:53:14;;;;;;;;;20.33;19.00;;;;;;;;6405286;22;45485;-71
2023/06/01 02:55:39;;;;;;;;;27.33;23.33;;;;;;;;6404733;22;45197;-70
2023/06/01 02:58:08;;;;;;;;;27.50;22.25;;;;;;;;6376323;22;45274;-70
2023/06/01 03:00:33;;;;;;;;;24.67;22.67;;;;;;;;6403941;22;46142;-71
2023/06/01 03:02:58;;;;;;;;;26.75;24.50;;;;;;;;6375173;22;46664;-70
2023/06/01 03:05:24;;;;;;;;;26.67;23.33;;;;;;;;6404386;22;45332;-70
2023/06/01 03:07:49;;;;;;;;;30.00;26.33;;;;;;;;6404870;22;45212;-70
2023/06/01 03:10:15;;;;;;;;;26.00;22.00;;;;;;;;6375524;22;46987;-70
2023/06/01 03:12:40;;;;;;;;;26.33;22.33;;;;;;;;6404514;22;45348;-70
2023/06/01 03:15:05;;;;;;;;;28.00;25.00;;;;;;;;6404091;22;45239;-70
2023/06/01 03:17:32;;;;;;;;;26.25;26.25;;;;;;;;6375704;22;45376;-71
2023/06/01 03:19:58;;;;;;;;;26.50;24.50;;;;;;;;6403806;22;45089;-70
2023/06/01 03:22:23;;;;;;;;;22.00;21.67;;;;;;;;6404148;22;45184;-70
2023/06/01 03:24:49;;;;;;;;;32.00;27.25;;;;;;;;6404696;22;45245;-70
2023/06/01 03:27:15;;;;;;;;;28.00;27.75;;;;;;;;6404423;22;45145;-70
2023/06/01 03:29:40;;;;;;;;;27.50;24.25;;;;;;;;6404366;22;45173;-70
2023/06/01 03:32:06;;;;;;;;;32.75;26.75;;;;;;;;6404169;22;45219;-70
2023/06/01 03:34:32;;;;;;;;;31.50;27.50;;;;;;;;6404598;22;45120;-70
2023/06/01 03:36:57;;;;;;;;;30.00;26.25;;;;;;;;6404701;22;45285;-70
2023/06/01 03:39:22;;;;;;;;;28.25;25.25;;;;;;;;6375162;22;45890;-70
2023/06/01 03:41:48;;;;;;;;;26.50;26.00;;;;;;;;6404253;22;45364;-70
2023/06/01 03:44:13;;;;;;;;;24.75;22.75;;;;;;;;6404209;22;45304;-70
2023/06/01 03:46:39;;;;;;;;;34.50;29.50;;;;;;;;6404629;22;45284;-70
2023/06/01 03:49:04;;;;;;;;;30.25;26.75;;;;;;;;6404553;22;45411;-71
2023/06/01 03:51:30;;;;;;;;;29.00;25.75;;;;;;;;6403867;22;45306;-70
2023/06/01 03:53:55;;;;;;;;;32.00;28.00;;;;;;;;6404542;22;45314;-71
2023/06/01 03:56:20;;;;;;;;;35.00;29.25;;;;;;;;6404248;22;45234;-71
2023/06/01 03:58:45;;;;;;;;;27.75;27.00;;;;;;;;6404373;22;45308;-70
2023/06/01 04:01:12;;;;;;;;;34.25;29.50;;;;;;;;6375077;22;45533;-71
2023/06/01 04:03:38;;;;;;;;;29.75;28.00;;;;;;;;6404764;22;45259;-70
2023/06/01 04:06:04;;;;;;;;;24.75;22.25;;;;;;;;6404049;22;45182;-71
2023/06/01 04:08:30;;;;;;;;;28.00;23.50;;;;;;;;6404482;22;45205;-71
2023/06/01 04:10:55;;;;;;;;;30.25;27.50;;;;;;;;6403859;22;45194;-71
2023/06/01 04:13:20;;;;;;;;;24.25;23.00;;;;;;;;6374997;22;45266;-71
2023/06/01 04:15:46;;;;;;;;;38.00;28.75;;;;;;;;6375038;22;45213;-71
2023/06/01 04:18:11;;;;;;;;;31.50;26.50;;;;;;;;6404479;22;45259;-70
2023/06/01 04:20:36;;;;;;;;;33.75;30.50;;;;;;;;6403139;22;45162;-70
2023/06/01 04:23:02;;;;;;;;;28.25;28.25;;;;;;;;6403715;22;45422;-70
2023/06/01 04:25:28;;;;;;;;;36.00;30.00;;;;;;;;6375057;22;45492;-71
2023/06/01 04:27:54;;;;;;;;;32.25;29.75;;;;;;;;6403600;22;45391;-70
2023/06/01 04:30:20;;;;;;;;;32.50;29.00;;;;;;;;6403518;22;45922;-70
2023/06/01 04:32:47;;;;;;;;;30.00;29.00;;;;;;;;6402285;22;45328;-70
2023/06/01 04:35:13;;;;;;;;;29.50;29.00;;;;;;;;6404153;22;45173;-70
2023/06/01 04:37:39;;;;;;;;;36.50;33.00;;;;;;;;6403914;22;45507;-70
2023/06/01 04:40:08;;;;;;;;;33.00;30.25;;;;;;;;6403945;22;45971;-70
2023/06/01 04:42:38;;;;;;;;;34.50;30.00;;;;;;;;6402240;22;45259;-69
2023/06/01 04:45:07;;;;;;;;;30.75;27.75;;;;;;;;6375012;22;45215;-70
2023/06/01 04:47:36;;;;;;;;;30.50;28.25;;;;;;;;6403165;22;45334;-70
2023/06/01 04:50:03;;;;;;;;;42.00;31.50;;;;;;;;6374566;22;48229;-70
2023/06/01 04:52:28;;;;;;;;;40.00;32.00;;;;;;;;6403417;22;45179;-69
2023/06/01 04:54:53;;;;;;;;;34.75;31.50;;;;;;;;6403577;22;45236;-70
2023/06/01 04:57:18;;;;;;;;;30.75;28.00;;;;;;;;6403468;22;45151;-70
2023/06/01 04:59:44;;;;;;;;;31.25;26.25;;;;;;;;6403209;22;45282;-70
2023/06/01 05:02:10;;;;;;;;;30.50;30.00;;;;;;;;6374788;22;45440;-70
2023/06/01 05:04:35;;;;;;;;;40.25;32.50;;;;;;;;6403062;22;45218;-70
2023/06/01 05:07:00;;;;;;;;;36.50;32.50;;;;;;;;6403854;22;45215;-70
2023/06/01 05:09:25;;;;;;;;;40.25;33.00;;;;;;;;6402926;22;45202;-69
2023/06/01 05:11:51;;;;;;;;;28.50;26.25;;;;;;;;6403435;22;45143;-69
2023/06/01 05:14:16;;;;;;;;;36.75;31.75;;;;;;;;6403567;22;45238;-71
2023/06/01 05:16:41;;;;;;;;;39.00;32.50;;;;;;;;6403450;22;45232;-70
2023/06/01 05:19:06;;;;;;;;;41.25;33.00;;;;;;;;6404067;22;46316;-69
2023/06/01 05:21:31;;;;;;;;;43.00;34.75;;;;;;;;6403060;22;45328;-70
2023/06/01 05:23:57;;;;;;;;;43.75;34.00;;;;;;;;6404140;22;45132;-70
2023/06/01 05:26:22;;;;;;;;;38.25;33.50;;;;;;;;6373682;22;46909;-69
2023/06/01 05:28:47;;;;;;;;;34.00;32.00;;;;;;;;6403215;22;45363;-69
2023/06/01 05:31:12;;;;;;;;;37.25;31.75;;;;;;;;6374289;22;45366;-69
2023/06/01 05:33:38;;;;;;;;;44.75;35.75;;;;;;;;6404112;22;45249;-69
2023/06/01 05:36:03;;;;;;;;;39.25;32.00;;;;;;;;6403370;22;45579;-68
2023/06/01 05:38:28;;;;;;;;;36.50;32.25;;;;;;;;6403220;22;46492;-69
2023/06/01 05:40:54;;;;;;;;;38.75;33.50;;;;;;;;6374491;22;45894;-68
2023/06/01 05:43:19;;;;;;;;;42.50;36.25;;;;;;;;6403359;22;45196;-69
2023/06/01 05:45:44;;;;;;;;;39.75;34.50;;;;;;;;6403255;22;45611;-69
2023/06/01 05:48:13;;;;;;;;;39.75;34.00;;;;;;;;6403459;22;45424;-69
2023/06/01 05:50:38;;;;;;;;;35.25;33.00;;;;;;;;6403368;22;45224;-68
2023/06/01 05:53:03;;;;;;;;;37.50;31.00;;;;;;;;6403711;22;45159;-69
2023/06/01 05:55:29;;;;;;;;;29.00;29.00;;;;;;;;6373882;22;45452;-69
2023/06/01 05:57:54;;;;;;;;;39.25;32.00;;;;;;;;6402770;22;45421;-70
2023/06/01 06:00:19;;;;;;;;;41.75;36.75;;;;;;;;6403592;22;45183;-69
2023/06/01 06:02:44;;;;;;;;;42.75;34.00;;;;;;;;6404060;22;45361;-69
2023/06/01 06:05:10;;;;;;;;;42.50;33.50;;;;;;;;6404431;22;45332;-68
2023/06/01 06:07:35;;;;;;;;;34.75;32.75;;;;;;;;6404693;22;45708;-69
2023/06/01 06:10:01;;;;;;;;;40.75;33.00;;;;;;;;6404490;22;45172;-68
2023/06/01 06:12:26;;;;;;;;;42.75;35.75;;;;;;;;6403817;22;45236;-68
2023/06/01 06:14:51;;;;;;;;;42.25;35.50;;;;;;;;6375827;22;45231;-68
2023/06/01 06:17:17;;;;;;;;;42.00;36.00;;;;;;;;6403990;22;45478;-68
2023/06/01 06:19:43;;;;;;;;;35.25;31.75;;;;;;;;6404266;22;45336;-68
2023/06/01 06:22:09;;;;;;;;;32.50;28.50;;;;;;;;6404895;22;45262;-70
2023/06/01 06:24:34;;;;;;;;;37.75;34.25;;;;;;;;6374986;22;46675;-69
2023/06/01 06:27:00;;;;;;;;;42.00;35.00;;;;;;;;6374881;22;45422;-69
2023/06/01 06:29:25;;;;;;;;;37.50;33.00;;;;;;;;6403138;22;45232;-69
2023/06/01 06:31:50;;;;;;;;;38.25;34.25;;;;;;;;6375689;22;45293;-69
2023/06/01 06:34:15;;;;;;;;;41.25;34.00;;;;;;;;6404761;22;45402;-69
2023/06/01 06:36:41;;;;;;;;;32.50;31.00;;;;;;;;6404479;22;45256;-70
2023/06/01 06:39:06;;;;;;;;;44.25;36.75;;;;;;;;6404744;22;45453;-70
2023/06/01 06:41:32;;;;;;;;;41.75;32.75;;;;;;;;6404401;22;45223;-69
2023/06/01 06:43:57;;;;;;;;;33.00;30.25;;;;;;;;6375475;22;45269;-70
2023/06/01 06:46:22;;;;;;;;;36.25;32.25;;;;;;;;6404123;22;45215;-70
2023/06/01 06:48:47;;;;;;;;;39.25;34.50;;;;;;;;6404261;22;45202;-69
2023/06/01 06:51:13;;;;;;;;;43.67;34.67;;;;;;;;6404306;22;45242;-70
2023/06/01 06:53:38;;;;;;;;;40.00;33.33;;;;;;;;6375223;22;45582;-69
2023/06/01 06:56:03;;;;;;;;;39.33;32.67;;;;;;;;6404232;22;45453;-70
2023/06/01 06:58:28;;;;;;;;;38.00;33.33;;;;;;;;6404371;22;45099;-70
2023/06/01 07:00:54;;;;;;;;;37.33;30.00;;;;;;;;6399689;22;45133;-69
2023/06/01 07:03:19;;;;;;;;;38.33;33.33;;;;;;;;6404309;22;45141;-71
2023/06/01 07:05:47;;;;;;;;;36.33;33.33;;;;;;;;6403746;22;45248;-71
2023/06/01 07:08:12;;;;;;;;;36.67;29.67;;;;;;;;6374633;22;45363;-71
2023/06/01 07:10:38;;;;;;;;;34.00;31.00;;;;;;;;6404549;22;45253;-71
2023/06/01 07:13:03;;;;;;;;;37.00;31.33;;;;;;;;6403710;22;45262;-70
2023/06/01 07:15:28;;;;;;;;;28.33;27.00;;;;;;;;6403433;22;46564;-71
2023/06/01 07:17:55;;;;;;;;;29.33;28.00;;;;;;;;6402850;22;45304;-72
2023/06/01 07:20:20;;;;;;;;;32.33;30.00;;;;;;;;6403802;22;45824;-71
2023/06/01 07:22:45;;;;;;;;;38.00;31.33;;;;;;;;6404031;22;45256;-70
2023/06/01 07:25:12;;;;;;;;;31.67;26.33;;;;;;;;6403455;22;45955;-69
2023/06/01 07:27:42;;;;;;;;;28.33;27.33;;;;;;;;6404008;22;45187;-71
2023/06/01 07:30:09;;;;;;;;;30.00;27.67;;;;;;;;6373973;22;45393;-70
2023/06/01 07:32:34;;;;;;;;;31.33;29.00;;;;;;;;6403937;22;45222;-71
2023/06/01 07:34:59;;;;;;;;;30.67;29.67;;;;;;;;6404022;22;45448;-70
2023/06/01 07:37:26;;;;;;;;;35.33;29.33;;;;;;;;6374959;22;45411;-70
2023/06/01 07:39:52;;;;;;;;;25.00;23.67;;;;;;;;6404301;22;45239;-70
2023/06/01 07:42:17;;;;;;;;;31.67;26.67;;;;;;;;6403633;22;45479;-70
2023/06/01 07:44:42;;;;;;;;;29.00;27.00;;;;;;;;6403714;22;45261;-70
2023/06/01 07:47:07;;;;;;;;;29.67;27.00;;;;;;;;6403914;22;45175;-70
2023/06/01 07:49:35;;;;;;;;;27.33;27.33;;;;;;;;6404366;22;45202;-70
2023/06/01 07:52:01;;;;;;;;;25.67;23.00;;;;;;;;6402477;22;45191;-70
2023/06/01 07:54:26;;;;;;;;;29.67;23.67;;;;;;;;6374528;22;46942;-71
2023/06/01 07:56:51;;;;;;;;;25.67;25.67;;;;;;;;6404267;22;45158;-70
2023/06/01 07:59:17;;;;;;;;;28.67;23.67;;;;;;;;6403765;22;45106;-70
2023/06/01 08:01:42;;;;;;;;;23.33;19.33;;;;;;;;6403640;22;45272;-70
2023/06/01 08:04:08;;;;;;;;;27.00;23.00;;;;;;;;6403981;22;45261;-70
2023/06/01 08:06:35;;;;;;;;;24.00;23.00;;;;;;;;6403531;22;45250;-70
2023/06/01 08:09:02;;;;;;;;;26.33;22.67;;;;;;;;6403874;22;45305;-70
2023/06/01 08:11:27;;;;;;;;;28.00;25.00;;;;;;;;6403475;22;45329;-70
2023/06/01 08:13:52;;;;;;;;;35.00;26.33;;;;;;;;6403439;22;45590;-70
2023/06/01 08:16:17;;;;;;;;;26.00;23.67;;;;;;;;6403829;22;45247;-68
2023/06/01 08:18:43;;;;;;;;;28.67;24.33;;;;;;;;6404341;22;45325;-67
2023/06/01 08:21:09;;;;;;;;;25.00;22.00;;;;;;;;6402630;22;45595;-68
2023/06/01 08:23:34;;;;;;;;;27.00;26.00;;;;;;;;6403855;22;45273;-67
2023/06/01 08:25:59;;;;;;;;;29.67;27.33;;;;;;;;6374520;22;45260;-68
2023/06/01 08:28:24;;;;;;;;;26.67;24.67;;;;;;;;6402725;22;45349;-70
2023/06/01 08:30:50;;;;;;;;;28.00;24.00;;;;;;;;6403525;22;45545;-68
2023/06/01 08:33:15;;;;;;;;;31.33;23.00;;;;;;;;6373831;22;47467;-70
2023/06/01 08:35:41;;;;;;;;;23.67;23.67;;;;;;;;6403504;22;45233;-70
2023/06/01 08:38:06;;;;;;;;;23.67;21.00;;;;;;;;6403657;22;45097;-70
2023/06/01 08:40:31;;;;;;;;;21.67;19.67;;;;;;;;6403665;22;45236;-70
2023/06/01 08:43:03;;;;;;;;;25.67;21.67;;;;;;;;6403428;22;45910;-71
2023/06/01 08:45:28;;;;;;;;;23.33;21.00;;;;;;;;6403321;22;45227;-71
2023/06/01 08:47:54;;;;;;;;;23.00;20.50;;;;;;;;6403391;22;45396;-71
2023/06/01 08:50:20;;;;;;;;;23.67;21.33;;;;;;;;6403644;22;45253;-68
2023/06/01 08:52:46;;;;;;;;;22.67;21.00;;;;;;;;6374847;22;45208;-69
2023/06/01 08:55:13;;;;;;;;;22.67;21.00;;;;;;;;6403744;22;45182;-68
2023/06/01 08:57:40;;;;;;;;;21.25;20.50;;;;;;;;6403782;22;45301;-69
2023/06/01 09:00:05;;;;;;;;;25.00;22.00;;;;;;;;6403319;22;45229;-69
2023/06/01 09:02:31;;;;;;;;;18.25;15.50;;;;;;;;6403585;22;45275;-69
2023/06/01 09:04:56;;;;;;;;;21.00;19.50;;;;;;;;6403949;22;45176;-69
2023/06/01 09:07:22;;;;;;;;;23.25;19.50;;;;;;;;6403723;22;45198;-71
2023/06/01 09:09:47;;;;;;;;;22.50;22.25;;;;;;;;6403574;22;45290;-69
2023/06/01 09:12:23;;;;;;;;;21.00;20.00;;;;;;;;6403467;22;46458;-69
2023/06/01 09:14:49;;;;;;;;;23.00;23.00;;;;;;;;6374438;22;45270;-70
2023/06/01 09:17:21;;;;;;;;;23.00;23.00;;;;;;;;6403528;22;45249;-69
2023/06/01 09:19:46;;;;;;;;;21.00;21.00;;;;;;;;6373687;22;47389;-70
2023/06/01 09:22:13;;;;;;;;;21.50;17.00;;;;;;;;6403256;22;45400;-70
2023/06/01 09:24:38;;;;;;;;;23.50;23.50;;;;;;;;6403170;22;45156;-70
2023/06/01 09:27:04;;;;;;;;;23.50;19.50;;;;;;;;6374287;22;45361;-69
2023/06/01 09:29:29;;;;;;;;;22.00;20.75;;;;;;;;6402754;22;45293;-69
2023/06/01 09:31:54;;;;;;;;;24.25;22.00;;;;;;;;6402478;22;46232;-69
2023/06/01 09:34:20;;;;;;;;;25.00;22.75;;;;;;;;6403621;22;45210;-70
2023/06/01 09:36:45;;;;;;;;;22.25;22.25;;;;;;;;6403019;22;45234;-69
2023/06/01 09:39:15;;;;;;;;;23.25;21.00;;;;;;;;6373652;22;46991;-69
2023/06/01 09:41:59;;;;;;;;;24.25;20.00;;;;;;;;6373837;22;46885;-69
2023/06/01 09:44:34;;;;;;;;;24.25;22.00;;;;;;;;6403096;22;45273;-69
2023/06/01 09:46:59;;;;;;;;;24.75;22.75;;;;;;;;6373873;22;45320;-69
2023/06/01 09:49:26;;;;;;;;;23.25;20.75;;;;;;;;6403672;22;45297;-69
2023/06/01 09:51:52;;;;;;;;;25.25;21.00;;;;;;;;6403318;22;46269;-70
2023/06/01 09:54:21;;;;;;;;;23.00;20.00;;;;;;;;6403569;22;45187;-69
2023/06/01 09:56:47;;;;;;;;;17.50;17.00;;;;;;;;6374502;22;45219;-69
2023/06/01 09:59:12;;;;;;;;;22.75;20.75;;;;;;;;6403073;22;45430;-69
2023/06/01 10:01:37;;;;;;;;;20.50;18.00;;;;;;;;6402902;22;46262;-69
2023/06/01 10:04:04;;;;;;;;;24.25;23.25;;;;;;;;6403488;22;45348;-70
2023/06/01 10:06:33;;;;;;;;;18.25;18.25;;;;;;;;6403615;22;45291;-69
2023/06/01 10:08:59;;;;;;;;;22.25;20.75;;;;;;;;6402780;22;45406;-70
2023/06/01 10:11:26;;;;;;;;;17.80;16.00;;;;;;;;6402771;22;45350;-69
2023/06/01 10:13:51;;;;;;;;;21.50;16.50;;;;;;;;6373955;22;45049;-69
2023/06/01 10:16:16;;;;;;;;;18.00;18.00;;;;;;;;6403314;22;45228;-72
2023/06/01 10:18:41;;;;;;;;;20.50;16.75;;;;;;;;6403222;22;45194;-70
2023/06/01 10:21:07;;;;;;;;;19.25;18.25;;;;;;;;6402676;22;46295;-69
2023/06/01 10:23:32;;;;;;;;;21.25;20.50;;;;;;;;6374019;22;45204;-69
2023/06/01 10:26:00;;;;;;;;;20.75;19.50;;;;;;;;6374751;22;45060;-70
2023/06/01 10:28:27;;;;;;;;;18.20;16.60;;;;;;;;6401911;22;45504;-69
2023/06/01 10:31:11;;;;;;;;;42.75;36.00;;;;;;;;6402867;22;46351;-69
2023/06/01 10:33:52;;;;;;;;;27.50;25.75;;;;;;;;6403371;22;45285;-70
2023/06/01 10:36:18;;;;;;;;;16.40;16.20;;;;;;;;6372954;22;45428;-69
2023/06/01 10:38:43;;;;;;;;;21.25;18.25;;;;;;;;6374252;22;45892;-69
2023/06/01 10:41:25;;;;;;;;;18.50;17.75;;;;;;;;6374151;22;47414;-69
2023/06/01 10:43:50;;;;;;;;;12.60;12.60;;;;;;;;6403016;22;45238;-69
2023/06/01 10:46:34;;;;;;;;;20.50;18.75;;;;;;;;6402994;22;45249;-69
2023/06/01 10:49:00;;;;;;;;;16.80;15.80;;;;;;;;6402576;22;45301;-69
2023/06/01 10:51:25;;;;;;;;;14.50;14.50;;;;;;;;6402893;22;45342;-69
2023/06/01 10:53:52;;;;;;;;;17.25;17.25;;;;;;;;6375516;22;45215;-70
2023/06/01 10:56:19;;;;;;;;;20.60;19.00;;;;;;;;6404186;22;45187;-69
2023/06/01 10:58:45;;;;;;;;;21.40;20.80;;;;;;;;6374858;22;45808;-69
2023/06/01 11:01:10;;;;;;;;;22.50;17.00;;;;;;;;6374587;22;47511;-70
2023/06/01 11:03:42;;;;;;;;;18.50;16.50;;;;;;;;6404842;22;45266;-69
2023/06/01 11:06:22;;;;;;;;;15.20;14.80;;;;;;;;6375803;22;45185;-68
2023/06/01 11:08:47;;;;;;;;;20.20;18.40;;;;;;;;6404404;22;45493;-69
2023/06/01 11:11:12;;;;;;;;;15.40;15.40;;;;;;;;6404718;22;45417;-69
2023/06/01 11:13:39;;;;;;;;;13.50;11.75;;;;;;;;6404296;22;45256;-70
2023/06/01 11:16:04;;;;;;;;;14.80;14.80;;;;;;;;6375039;22;45596;-69
2023/06/01 11:18:58;;;;;;;;;18.00;15.75;;;;;;;;6404693;22;45151;-70
2023/06/01 11:21:24;;;;;;;;;17.20;16.00;;;;;;;;6403095;22;45328;-70
2023/06/01 11:23:50;;;;;;;;;20.00;17.20;;;;;;;;6404478;22;45537;-69
2023/06/01 11:26:16;;;;;;;;;18.00;16.50;;;;;;;;6375218;22;45419;-69
2023/06/01 11:28:42;;;;;;;;;13.80;13.80;;;;;;;;6404312;22;45308;-68
2023/06/01 11:31:12;;;;;;;;;17.00;15.50;;;;;;;;6375598;22;48020;-68
2023/06/01 11:33:40;;;;;;;;;17.60;17.60;;;;;;;;6404277;22;45306;-71
2023/06/01 11:36:07;;;;;;;;;14.20;13.20;;;;;;;;6404475;22;45167;-69
2023/06/01 11:38:36;;;;;;;;;16.40;15.20;;;;;;;;6404164;22;45142;-69
2023/06/01 11:41:02;;;;;;;;;17.40;16.20;;;;;;;;6403476;22;46518;-69
2023/06/01 11:43:28;;;;;;;;;13.25;12.25;;;;;;;;6404113;22;45284;-68
2023/06/01 11:46:03;;;;;;;;;17.00;14.50;;;;;;;;6404232;22;45187;-69
2023/06/01 11:48:29;;;;;;;;;13.60;12.00;;;;;;;;6374818;22;47202;-69
2023/06/01 11:50:54;;;;;;;;;17.00;15.75;;;;;;;;6404143;22;45284;-69
2023/06/01 11:53:20;;;;;;;;;17.50;14.50;;;;;;;;6404337;22;45165;-69
2023/06/01 11:55:49;;;;;;;;;11.25;10.00;;;;;;;;6404580;22;45463;-69
2023/06/01 11:58:19;;;;;;;;;14.00;12.00;;;;;;;;6404132;22;45235;-69
2023/06/01 12:00:46;;;;;;;;;15.00;13.80;;;;;;;;6403892;22;45357;-68
2023/06/01 12:03:11;;;;;;;;;10.60;10.60;;;;;;;;6404172;22;45087;-68
2023/06/01 12:05:43;;;;;;;;;11.25;11.25;;;;;;;;6375232;22;45362;-69
2023/06/01 12:08:13;;;;;;;;;13.60;11.60;;;;;;;;6400081;22;45329;-70
2023/06/01 12:10:38;;;;;;;;;11.60;11.60;;;;;;;;6403187;22;45415;-69
2023/06/01 12:13:04;;;;;;;;;13.75;11.75;;;;;;;;6404117;22;45221;-69
2023/06/01 12:15:29;;;;;;;;;14.25;14.25;;;;;;;;6404031;22;45270;-69
2023/06/01 12:17:55;;;;;;;;;12.75;10.50;;;;;;;;6404279;22;45438;-71
2023/06/01 12:20:31;;;;;;;;;13.00;12.00;;;;;;;;6404000;22;46086;-69
2023/06/01 12:23:03;;;;;;;;;13.00;11.40;;;;;;;;6404228;22;45214;-69
2023/06/01 12:25:29;;;;;;;;;12.60;11.40;;;;;;;;6403800;22;45318;-69
2023/06/01 12:28:04;;;;;;;;;11.00;11.00;;;;;;;;6403669;22;45370;-69
2023/06/01 12:30:30;;;;;;;;;9.00;7.20;;;;;;;;6404026;22;45264;-69
2023/06/01 12:32:55;;;;;;;;;12.00;11.00;;;;;;;;6404403;22;45215;-69
2023/06/01 12:35:23;;;;;;;;;10.75;10.75;;;;;;;;6404122;22;45267;-69
2023/06/01 12:38:09;;;;;;;;;17.00;12.60;;;;;;;;6403441;22;45323;-69
2023/06/01 12:40:35;;;;;;;;;16.20;13.40;;;;;;;;6403794;22;46556;-69
2023/06/01 12:43:00;;;;;;;;;11.25;10.00;;;;;;;;6403817;22;45200;-69
2023/06/01 12:45:34;;;;;;;;;10.25;10.25;;;;;;;;6374218;22;45395;-69
2023/06/01 12:47:59;;;;;;;;;13.40;13.00;;;;;;;;6404154;22;45543;-68
2023/06/01 12:50:24;;;;;;;;;12.75;12.75;;;;;;;;6403935;22;45229;-68
2023/06/01 12:52:49;;;;;;;;;14.50;12.00;;;;;;;;6404283;22;45276;-69
2023/06/01 12:55:15;;;;;;;;;17.00;12.00;;;;;;;;6374845;22;45371;-69
2023/06/01 12:57:40;;;;;;;;;11.50;10.25;;;;;;;;6403100;22;45518;-69
2023/06/01 13:00:06;;;;;;;;;14.50;13.50;;;;;;;;6404208;22;45221;-69
2023/06/01 13:02:33;;;;;;;;;15.50;12.50;;;;;;;;6403895;22;45174;-69
2023/06/01 13:04:59;;;;;;;;;13.80;13.40;;;;;;;;6403609;22;45483;-67
2023/06/01 13:07:24;;;;;;;;;13.75;12.00;;;;;;;;6402989;22;45297;-67
2023/06/01 13:09:49;;;;;;;;;15.00;12.25;;;;;;;;6375043;22;47236;-67
2023/06/01 13:12:15;;;;;;;;;13.50;12.50;;;;;;;;6403685;22;45234;-68
2023/06/01 13:14:40;;;;;;;;;15.00;11.75;;;;;;;;6403206;22;45237;-67
2023/06/01 13:17:05;;;;;;;;;13.50;12.25;;;;;;;;6403707;22;45244;-67
2023/06/01 13:19:30;;;;;;;;;12.00;10.00;;;;;;;;6403577;22;45293;-68
2023/06/01 13:21:56;;;;;;;;;9.50;9.50;;;;;;;;6403679;22;45210;-68
2023/06/01 13:24:21;;;;;;;;;14.25;12.00;;;;;;;;6404038;22;45388;-68
2023/06/01 13:26:47;;;;;;;;;11.75;11.00;;;;;;;;6403199;22;45393;-67
2023/06/01 13:29:12;;;;;;;;;13.00;12.00;;;;;;;;6373893;22;47162;-68
2023/06/01 13:31:38;;;;;;;;;10.75;10.75;;;;;;;;6403116;22;45171;-68
2023/06/01 13:34:03;;;;;;;;;11.00;8.75;;;;;;;;6402679;22;45254;-68
2023/06/01 13:36:28;;;;;;;;;13.50;12.25;;;;;;;;6403536;22;45372;-68
2023/06/01 13:38:54;;;;;;;;;9.25;9.25;;;;;;;;6374493;22;47208;-68
2023/06/01 13:41:19;;;;;;;;;11.75;11.75;;;;;;;;6403480;22;45211;-68
2023/06/01 13:43:44;;;;;;;;;12.00;11.25;;;;;;;;6403761;22;45143;-68
2023/06/01 13:46:10;;;;;;;;;10.00;10.00;;;;;;;;6403340;22;45392;-68
2023/06/01 13:48:35;;;;;;;;;10.50;10.50;;;;;;;;6374946;22;47699;-68
2023/06/01 13:51:00;;;;;;;;;12.50;11.50;;;;;;;;6403513;22;45309;-68
2023/06/01 13:53:26;;;;;;;;;12.00;12.00;;;;;;;;6404073;22;45230;-68
2023/06/01 13:55:51;;;;;;;;;11.75;11.00;;;;;;;;6374654;22;45296;-68
2023/06/01 13:58:16;;;;;;;;;15.25;12.00;;;;;;;;6403638;22;45211;-67
2023/06/01 14:00:41;;;;;;;;;8.50;8.25;;;;;;;;6403135;22;45131;-67
2023/06/01 14:03:06;;;;;;;;;10.50;10.50;;;;;;;;6403774;22;45514;-68
2023/06/01 14:05:32;;;;;;;;;10.50;8.50;;;;;;;;6403135;22;45528;-68
2023/06/01 14:07:57;;;;;;;;;10.75;9.50;;;;;;;;6403002;22;45315;-68
2023/06/01 14:10:22;;;;;;;;;15.00;13.25;;;;;;;;6403261;22;45301;-67
2023/06/01 14:12:47;;;;;;;;;11.25;11.25;;;;;;;;6403139;22;45218;-68
2023/06/01 14:15:13;;;;;;;;;12.50;11.00;;;;;;;;6402910;22;45175;-68